createdAt,value
2023-02-28T00:01:36.015Z,2.40
2023-02-28T00:04:04.713Z,2.40
2023-02-28T00:06:32.708Z,2.40
2023-02-28T00:09:01.994Z,2.40
2023-02-28T00:11:30.389Z,2.40
2023-02-28T00:13:58.674Z,2.40
2023-02-28T00:16:26.707Z,2.40
2023-02-28T00:18:54.760Z,2.40
2023-02-28T00:21:23.208Z,2.40
2023-02-28T00:23:51.279Z,2.40
2023-02-28T00:26:21.907Z,2.40
2023-02-28T00:28:50.531Z,2.40
2023-02-28T00:31:18.620Z,2.40
2023-02-28T00:33:46.652Z,2.40
2023-02-28T00:36:14.684Z,2.50
2023-02-28T00:38:43.383Z,2.50
2023-02-28T00:41:11.669Z,2.50
2023-02-28T00:43:41.823Z,2.50
2023-02-28T00:46:10.288Z,2.50
2023-02-28T00:48:39.122Z,2.50
2023-02-28T00:51:07.504Z,2.50
2023-02-28T00:53:35.582Z,2.50
2023-02-28T00:56:04.862Z,2.50
2023-02-28T00:58:33.786Z,2.60
2023-02-28T01:01:03.213Z,2.60
2023-02-28T01:03:31.352Z,2.60
2023-02-28T01:05:59.449Z,2.60
2023-02-28T01:08:27.902Z,2.60
2023-02-28T01:10:56.284Z,2.60
2023-02-28T01:13:24.675Z,2.60
2023-02-28T01:15:54.518Z,2.60
2023-02-28T01:18:25.540Z,2.60
2023-02-28T01:20:53.858Z,2.60
2023-02-28T01:23:22.744Z,2.70
2023-02-28T01:25:50.935Z,2.70
2023-02-28T01:28:18.960Z,2.70
2023-02-28T01:30:50.220Z,2.70
2023-02-28T01:33:18.398Z,2.70
2023-02-28T01:35:47.815Z,2.70
2023-02-28T01:38:22.459Z,2.70
2023-02-28T01:40:51.032Z,2.70
2023-02-28T01:43:25.279Z,2.70
2023-02-28T01:45:53.860Z,2.70
2023-02-28T01:48:25.022Z,2.80
2023-02-28T01:50:56.337Z,2.80
2023-02-28T01:53:28.715Z,2.80
2023-02-28T01:55:57.286Z,2.80
2023-02-28T01:58:25.511Z,2.80
2023-02-28T02:00:54.068Z,2.80
2023-02-28T02:03:22.386Z,2.80
2023-02-28T02:05:50.487Z,2.80
2023-02-28T02:08:22.654Z,2.80
2023-02-28T02:10:54.846Z,2.80
2023-02-28T02:13:36.075Z,2.80
2023-02-28T02:16:16.490Z,2.80
2023-02-28T02:18:48.919Z,2.80
2023-02-28T02:21:43.269Z,2.90
2023-02-28T02:24:44.507Z,2.90
2023-02-28T02:28:00.497Z,2.90
2023-02-28T02:31:04.926Z,2.90
2023-02-28T02:33:58.546Z,2.90
2023-02-28T02:36:32.598Z,2.90
2023-02-28T02:39:08.091Z,2.90
2023-02-28T02:41:40.831Z,2.90
2023-02-28T02:44:14.301Z,2.90
2023-02-28T02:46:45.753Z,2.90
2023-02-28T02:49:18.578Z,2.90
2023-02-28T02:51:49.942Z,3.00
2023-02-28T02:54:22.803Z,3.00
2023-02-28T02:56:52.592Z,3.00
2023-02-28T02:59:24.899Z,3.00
2023-02-28T03:01:55.606Z,3.00
2023-02-28T03:04:25.567Z,3.00
2023-02-28T03:06:55.720Z,3.00
2023-02-28T03:09:23.895Z,3.00
2023-02-28T03:11:54.238Z,3.00
2023-02-28T03:14:34.972Z,3.00
2023-02-28T03:17:30.180Z,3.00
2023-02-28T03:20:08.464Z,3.00
2023-02-28T03:22:55.700Z,3.00
2023-02-28T03:25:33.916Z,3.00
2023-02-28T03:28:11.405Z,3.10
2023-02-28T03:30:47.945Z,3.10
2023-02-28T03:33:19.920Z,3.10
2023-02-28T03:35:52.085Z,3.10
2023-02-28T03:38:26.448Z,3.10
2023-02-28T03:41:00.850Z,3.10
2023-02-28T03:43:34.078Z,3.10
2023-02-28T03:46:08.138Z,3.10
2023-02-28T03:48:42.119Z,3.10
2023-02-28T03:51:14.411Z,3.10
2023-02-28T03:53:47.545Z,3.10
2023-02-28T03:56:20.080Z,3.10
2023-02-28T03:58:56.067Z,3.10
2023-02-28T04:01:29.260Z,3.10
2023-02-28T04:03:57.574Z,3.10
2023-02-28T04:06:26.709Z,3.10
2023-02-28T04:08:56.729Z,3.10
2023-02-28T04:11:30.197Z,3.20
2023-02-28T04:13:58.332Z,3.20
2023-02-28T04:16:34.938Z,3.20
2023-02-28T04:19:06.028Z,3.20
2023-02-28T04:21:35.558Z,3.20
2023-02-28T04:24:05.824Z,3.20
2023-02-28T04:26:34.576Z,3.20
2023-02-28T04:29:06.241Z,3.20
2023-02-28T04:31:34.492Z,3.20
2023-02-28T04:34:02.867Z,3.20
2023-02-28T04:36:30.899Z,3.20
2023-02-28T04:38:59.080Z,3.20
2023-02-28T04:41:32.061Z,3.20
2023-02-28T04:44:00.878Z,3.20
2023-02-28T04:46:28.925Z,3.20
2023-02-28T04:48:56.941Z,3.20
2023-02-28T04:51:25.041Z,3.20
2023-02-28T04:53:53.947Z,3.30
2023-02-28T04:56:22.310Z,3.30
2023-02-28T04:58:54.148Z,3.30
2023-02-28T05:01:25.289Z,3.30
2023-02-28T05:03:55.143Z,3.30
2023-02-28T05:06:24.737Z,3.30
2023-02-28T05:08:53.744Z,3.30
2023-02-28T05:11:24.356Z,3.30
2023-02-28T05:13:54.725Z,3.30
2023-02-28T05:16:22.860Z,3.30
2023-02-28T05:18:51.091Z,3.30
2023-02-28T05:21:28.726Z,3.30
2023-02-28T05:23:58.721Z,3.30
2023-02-28T05:26:27.886Z,3.30
2023-02-28T05:28:57.810Z,3.30
2023-02-28T05:31:26.044Z,3.30
2023-02-28T05:33:54.061Z,3.30
2023-02-28T05:36:23.808Z,3.30
2023-02-28T05:38:52.999Z,3.30
2023-02-28T05:41:22.146Z,3.30
2023-02-28T05:43:50.857Z,3.30
2023-02-28T05:46:20.239Z,3.30
2023-02-28T05:48:49.971Z,3.30
2023-02-28T05:51:18.537Z,3.30
2023-02-28T05:53:46.599Z,3.30
2023-02-28T05:56:14.577Z,3.30
2023-02-28T05:58:42.673Z,3.30
2023-02-28T06:01:27.539Z,3.30
2023-02-28T06:03:55.788Z,3.30
2023-02-28T06:06:24.249Z,3.30
2023-02-28T06:08:52.281Z,3.30
2023-02-28T06:11:21.439Z,3.30
2023-02-28T06:13:49.665Z,3.30
2023-02-28T06:16:17.672Z,3.30
2023-02-28T06:18:47.194Z,3.30
2023-02-28T06:21:15.812Z,3.30
2023-02-28T06:23:44.988Z,3.30
2023-02-28T06:26:13.303Z,3.30
2023-02-28T06:28:41.611Z,3.30
2023-02-28T06:31:10.754Z,3.30
2023-02-28T06:33:40.076Z,3.20
2023-02-28T06:36:10.981Z,3.20
2023-02-28T06:38:39.436Z,3.20
2023-02-28T06:41:07.680Z,3.20
2023-02-28T06:43:39.336Z,3.20
2023-02-28T06:46:10.317Z,3.20
2023-02-28T06:48:38.682Z,3.20
2023-02-28T06:51:09.808Z,3.20
2023-02-28T06:53:38.069Z,3.10
2023-02-28T06:56:07.660Z,3.10
2023-02-28T06:58:36.137Z,3.10
2023-02-28T07:01:04.931Z,3.00
2023-02-28T07:03:34.546Z,3.00
2023-02-28T07:06:02.789Z,3.00
2023-02-28T07:08:32.763Z,2.90
2023-02-28T07:11:00.986Z,2.90
2023-02-28T07:13:28.912Z,2.90
2023-02-28T07:15:58.451Z,2.80
2023-02-28T07:18:26.728Z,2.80
2023-02-28T07:20:55.184Z,2.80
2023-02-28T07:23:23.979Z,2.80
2023-02-28T07:25:54.114Z,2.80
2023-02-28T07:28:22.122Z,2.80
2023-02-28T07:30:50.146Z,2.80
2023-02-28T07:33:18.516Z,2.80
2023-02-28T07:35:46.577Z,2.70
2023-02-28T07:38:14.819Z,2.70
2023-02-28T07:40:43.018Z,2.70
2023-02-28T07:43:12.330Z,2.70
2023-02-28T07:45:40.367Z,2.70
2023-02-28T07:48:10.932Z,2.70
2023-02-28T07:50:39.046Z,2.70
2023-02-28T07:53:07.080Z,2.70
2023-02-28T07:55:35.056Z,2.70
2023-02-28T07:58:03.050Z,2.70
2023-02-28T08:00:33.160Z,2.70
2023-02-28T08:03:01.203Z,2.70
2023-02-28T08:05:29.184Z,2.70
2023-02-28T08:07:57.161Z,2.70
2023-02-28T08:10:25.959Z,2.70
2023-02-28T08:12:53.947Z,2.70
2023-02-28T08:15:22.016Z,2.70
2023-02-28T08:17:51.354Z,2.70
2023-02-28T08:20:19.552Z,2.70
2023-02-28T08:22:47.584Z,2.70
2023-02-28T08:25:15.890Z,2.60
2023-02-28T08:27:43.908Z,2.70
2023-02-28T08:30:13.368Z,2.60
2023-02-28T08:32:41.515Z,2.70
2023-02-28T08:35:11.776Z,2.70
2023-02-28T08:37:39.829Z,2.70
2023-02-28T08:40:09.908Z,2.70
2023-02-28T08:42:38.384Z,2.70
2023-02-28T08:45:07.473Z,2.70
2023-02-28T08:47:35.382Z,2.70
2023-02-28T08:50:03.355Z,2.70
2023-02-28T08:52:32.694Z,2.70
2023-02-28T08:55:00.956Z,2.70
2023-02-28T08:57:28.972Z,2.70
2023-02-28T08:59:56.921Z,2.70
2023-02-28T09:02:24.886Z,2.70
2023-02-28T09:04:52.838Z,2.70
2023-02-28T09:07:20.949Z,2.70
2023-02-28T09:09:56.220Z,2.70
2023-02-28T09:12:24.960Z,2.80
2023-02-28T09:14:53.018Z,2.80
2023-02-28T09:17:21.837Z,2.80
2023-02-28T09:19:50.313Z,2.80
2023-02-28T09:22:18.579Z,2.80
2023-02-28T09:24:46.679Z,2.80
2023-02-28T09:27:16.012Z,2.80
2023-02-28T09:29:44.039Z,2.80
2023-02-28T09:32:12.085Z,2.90
2023-02-28T09:34:40.104Z,2.90
2023-02-28T09:37:08.110Z,2.90
2023-02-28T09:39:36.031Z,2.90
2023-02-28T09:42:05.637Z,3.00
2023-02-28T09:44:39.790Z,3.00
2023-02-28T09:47:15.072Z,3.00
2023-02-28T09:49:47.924Z,3.00
2023-02-28T09:52:20.505Z,3.00
2023-02-28T09:54:48.574Z,3.00
2023-02-28T09:57:21.800Z,3.10
2023-02-28T10:00:05.827Z,3.00
2023-02-28T10:02:51.122Z,3.10
2023-02-28T10:05:21.911Z,3.10
2023-02-28T10:08:02.819Z,3.10
2023-02-28T10:10:36.929Z,3.20
2023-02-28T10:13:08.968Z,3.20
2023-02-28T10:15:38.760Z,3.20
2023-02-28T10:18:13.851Z,3.20
2023-02-28T10:20:43.189Z,3.30
2023-02-28T10:23:16.762Z,3.30
2023-02-28T10:25:49.077Z,3.30
2023-02-28T10:28:18.904Z,3.30
2023-02-28T10:30:50.878Z,3.30
2023-02-28T10:33:25.513Z,3.40
2023-02-28T10:35:53.966Z,3.40
2023-02-28T10:38:24.375Z,3.50
2023-02-28T10:40:52.782Z,3.50
2023-02-28T10:43:23.680Z,3.60
2023-02-28T10:45:59.790Z,3.60
2023-02-28T10:48:34.863Z,3.60
2023-02-28T10:51:05.052Z,3.70
2023-02-28T10:53:57.590Z,3.80
2023-02-28T10:56:29.141Z,3.80
2023-02-28T10:58:59.145Z,3.90
2023-02-28T11:01:40.996Z,3.90
2023-02-28T11:04:36.853Z,4.00
2023-02-28T11:07:07.125Z,4.10
2023-02-28T11:09:37.488Z,4.20
2023-02-28T11:12:07.855Z,4.30
2023-02-28T11:14:41.589Z,4.30
2023-02-28T11:17:21.560Z,4.30
2023-02-28T11:19:52.887Z,4.40
2023-02-28T11:22:23.729Z,4.40
2023-02-28T11:24:55.669Z,4.50
2023-02-28T11:27:42.778Z,4.60
2023-02-28T11:30:26.682Z,4.60
2023-02-28T11:32:56.194Z,4.60
2023-02-28T11:35:28.980Z,4.70
2023-02-28T11:37:57.124Z,4.70
2023-02-28T11:40:33.530Z,4.80
2023-02-28T11:43:15.468Z,4.90
2023-02-28T11:45:58.778Z,4.90
2023-02-28T11:48:35.027Z,4.90
2023-02-28T11:51:15.490Z,5.00
2023-02-28T11:54:03.217Z,5.00
2023-02-28T11:56:35.381Z,5.10
2023-02-28T11:59:29.636Z,5.20
2023-02-28T12:02:20.164Z,5.20
2023-02-28T12:04:59.576Z,5.30
2023-02-28T12:07:36.355Z,5.30
2023-02-28T12:10:17.263Z,5.40
2023-02-28T12:12:57.257Z,5.40
2023-02-28T12:15:56.157Z,5.50
2023-02-28T12:18:49.988Z,5.50
2023-02-28T12:21:28.954Z,5.60
2023-02-28T12:24:16.295Z,5.60
2023-02-28T12:26:46.397Z,5.60
2023-02-28T12:29:20.393Z,5.70
2023-02-28T12:31:51.797Z,5.70
2023-02-28T12:34:24.524Z,5.80
2023-02-28T12:36:57.954Z,5.80
2023-02-28T12:39:32.663Z,5.90
2023-02-28T12:42:11.471Z,6.00
2023-02-28T12:44:46.125Z,6.00
2023-02-28T12:47:17.221Z,6.10
2023-02-28T12:49:51.403Z,6.10
2023-02-28T12:52:26.936Z,6.20
2023-02-28T12:55:03.149Z,6.20
2023-02-28T12:57:37.894Z,6.30
2023-02-28T13:00:13.193Z,6.30
2023-02-28T13:03:37.124Z,6.40
2023-02-28T13:06:30.135Z,6.40
2023-02-28T13:09:12.274Z,6.50
2023-02-28T13:11:44.852Z,6.50
2023-02-28T13:14:28.812Z,6.60
2023-02-28T13:17:04.370Z,6.60
2023-02-28T13:19:35.527Z,6.70
2023-02-28T13:22:04.444Z,6.70
2023-02-28T13:24:43.094Z,6.80
2023-02-28T13:27:36.672Z,6.80
2023-02-28T13:30:49.738Z,6.90
2023-02-28T13:33:28.862Z,7.00
2023-02-28T13:36:25.140Z,7.10
2023-02-28T13:38:54.300Z,7.00
2023-02-28T13:41:48.571Z,7.00
2023-02-28T13:44:19.102Z,7.10
2023-02-28T13:47:23.552Z,7.20
2023-02-28T13:49:53.423Z,7.20
2023-02-28T13:52:25.648Z,7.30
2023-02-28T13:55:09.660Z,7.40
2023-02-28T13:57:57.510Z,7.40
2023-02-28T14:00:37.602Z,7.50
2023-02-28T14:03:20.647Z,7.70
2023-02-28T14:05:50.147Z,8.00
2023-02-28T14:08:22.602Z,8.20
2023-02-28T14:10:53.242Z,8.50
2023-02-28T14:13:46.425Z,8.70
2023-02-28T14:16:16.615Z,8.80
2023-02-28T14:18:52.053Z,8.90
2023-02-28T14:21:26.704Z,8.90
2023-02-28T14:24:32.228Z,8.80
2023-02-28T14:27:17.108Z,8.60
2023-02-28T14:30:08.011Z,8.50
2023-02-28T14:32:42.859Z,8.40
2023-02-28T14:35:24.447Z,8.30
2023-02-28T14:37:52.598Z,8.30
2023-02-28T14:40:27.301Z,8.20
2023-02-28T14:42:58.416Z,8.20
2023-02-28T14:45:30.650Z,8.10
2023-02-28T14:47:59.882Z,8.00
2023-02-28T14:50:32.446Z,7.90
2023-02-28T14:53:01.018Z,7.90
2023-02-28T14:55:31.753Z,7.90
2023-02-28T14:58:03.871Z,7.80
2023-02-28T15:00:34.924Z,7.90
2023-02-28T15:03:19.934Z,7.80
2023-02-28T15:05:55.197Z,7.80
2023-02-28T15:08:24.024Z,7.70
2023-02-28T15:10:57.760Z,7.70
2023-02-28T15:13:38.325Z,7.70
2023-02-28T15:16:12.381Z,7.60
2023-02-28T15:18:47.907Z,7.60
2023-02-28T15:21:19.325Z,7.50
2023-02-28T15:23:51.114Z,7.60
2023-02-28T15:26:22.623Z,7.60
2023-02-28T15:28:53.346Z,7.50
2023-02-28T15:31:27.791Z,7.60
2023-02-28T15:33:57.906Z,7.50
2023-02-28T15:36:29.793Z,7.50
2023-02-28T15:39:10.492Z,7.40
2023-02-28T15:41:43.667Z,7.40
2023-02-28T15:44:30.515Z,7.40
2023-02-28T15:47:05.685Z,7.40
2023-02-28T15:49:45.033Z,7.30
2023-02-28T15:52:17.798Z,7.30
2023-02-28T15:54:47.003Z,7.30
2023-02-28T15:57:20.106Z,7.20
2023-02-28T15:59:53.889Z,7.20
2023-02-28T16:02:25.155Z,7.10
2023-02-28T16:05:15.633Z,7.10
2023-02-28T16:07:44.987Z,7.00
2023-02-28T16:10:15.494Z,7.00
2023-02-28T16:12:43.991Z,6.90
2023-02-28T16:15:21.232Z,6.90
2023-02-28T16:17:51.284Z,6.90
2023-02-28T16:20:21.892Z,6.80
2023-02-28T16:22:49.871Z,6.70
2023-02-28T16:25:20.125Z,6.70
2023-02-28T16:27:51.335Z,6.70
2023-02-28T16:30:23.869Z,6.60
2023-02-28T16:32:54.487Z,6.60
2023-02-28T16:35:23.217Z,6.50
2023-02-28T16:37:53.292Z,6.50
2023-02-28T16:40:24.062Z,6.50
2023-02-28T16:42:55.532Z,6.40
2023-02-28T16:45:25.724Z,6.40
2023-02-28T16:47:55.484Z,6.30
2023-02-28T16:50:25.553Z,6.20
2023-02-28T16:52:55.415Z,6.20
2023-02-28T16:55:24.189Z,6.10
2023-02-28T16:57:54.803Z,6.10
2023-02-28T17:00:23.494Z,6.00
2023-02-28T17:03:04.178Z,6.00
2023-02-28T17:05:38.684Z,5.90
2023-02-28T17:08:07.139Z,5.80
2023-02-28T17:10:35.296Z,5.70
2023-02-28T17:13:14.163Z,5.70
2023-02-28T17:15:43.292Z,5.70
2023-02-28T17:18:17.700Z,5.60
2023-02-28T17:20:45.751Z,5.50
2023-02-28T17:23:13.822Z,5.50
2023-02-28T17:25:41.898Z,5.40
2023-02-28T17:28:11.360Z,5.40
2023-02-28T17:30:41.018Z,5.30
2023-02-28T17:33:09.129Z,5.20
2023-02-28T17:35:38.545Z,5.20
2023-02-28T17:38:06.644Z,5.10
2023-02-28T17:40:34.888Z,5.20
2023-02-28T17:43:03.078Z,5.20
2023-02-28T17:45:31.061Z,5.20
2023-02-28T17:47:59.107Z,5.20
2023-02-28T17:50:27.125Z,5.20
2023-02-28T17:52:57.280Z,5.10
2023-02-28T17:55:25.309Z,5.10
2023-02-28T17:57:53.292Z,5.10
2023-02-28T18:00:24.922Z,5.10
2023-02-28T18:02:53.081Z,5.00
2023-02-28T18:05:21.184Z,5.00
2023-02-28T18:07:49.285Z,5.00
2023-02-28T18:10:20.627Z,5.00
2023-02-28T18:12:49.185Z,4.90
2023-02-28T18:15:18.105Z,4.90
2023-02-28T18:17:46.103Z,4.90
2023-02-28T18:20:14.421Z,4.80
2023-02-28T18:22:44.201Z,4.80
2023-02-28T18:25:14.748Z,4.80
2023-02-28T18:27:53.930Z,4.80
2023-02-28T18:30:22.379Z,4.70
2023-02-28T18:32:50.525Z,4.70
2023-02-28T18:35:34.485Z,4.60
2023-02-28T18:38:09.936Z,4.60
2023-02-28T18:40:38.848Z,4.60
2023-02-28T18:43:08.165Z,4.50
2023-02-28T18:45:37.403Z,4.50
2023-02-28T18:48:06.030Z,4.50
2023-02-28T18:50:33.997Z,4.50
2023-02-28T18:53:03.309Z,4.40
2023-02-28T18:55:32.621Z,4.40
2023-02-28T18:58:00.942Z,4.30
2023-02-28T19:00:30.308Z,4.30
2023-02-28T19:02:58.238Z,4.30
2023-02-28T19:05:27.892Z,4.20
2023-02-28T19:07:55.859Z,4.20
2023-02-28T19:10:23.794Z,4.20
2023-02-28T19:12:51.699Z,4.20
2023-02-28T19:15:19.757Z,4.10
2023-02-28T19:17:49.204Z,4.10
2023-02-28T19:20:17.949Z,4.00
2023-02-28T19:22:45.852Z,4.00
2023-02-28T19:25:13.741Z,4.00
2023-02-28T19:27:41.642Z,3.90
2023-02-28T19:30:10.678Z,3.90
2023-02-28T19:32:38.631Z,3.90
2023-02-28T19:35:09.101Z,3.80
2023-02-28T19:37:39.293Z,3.80
2023-02-28T19:40:08.766Z,3.80
2023-02-28T19:42:36.988Z,3.70
2023-02-28T19:45:06.935Z,3.70
2023-02-28T19:47:34.870Z,3.70
2023-02-28T19:50:02.797Z,3.70
2023-02-28T19:52:32.091Z,3.60
2023-02-28T19:54:59.942Z,3.60
2023-02-28T19:57:27.943Z,3.60
2023-02-28T19:59:57.639Z,3.60
2023-02-28T20:02:26.232Z,3.50
2023-02-28T20:04:58.710Z,3.50
2023-02-28T20:07:28.655Z,3.50
2023-02-28T20:09:57.870Z,3.40
2023-02-28T20:12:27.020Z,3.40
2023-02-28T20:14:56.871Z,3.40
2023-02-28T20:17:25.362Z,3.40
2023-02-28T20:19:53.255Z,3.30
2023-02-28T20:22:21.164Z,3.30
2023-02-28T20:24:49.519Z,3.30
2023-02-28T20:27:18.763Z,3.20
2023-02-28T20:29:46.705Z,3.20
2023-02-28T20:32:14.598Z,3.20
2023-02-28T20:34:42.696Z,3.20
2023-02-28T20:37:10.574Z,3.10
2023-02-28T20:39:38.490Z,3.10
2023-02-28T20:42:07.283Z,3.10
2023-02-28T20:44:36.538Z,3.10
2023-02-28T20:47:04.683Z,3.10
2023-02-28T20:49:32.652Z,3.00
2023-02-28T20:52:00.606Z,3.00
2023-02-28T20:54:30.292Z,3.00
2023-02-28T20:56:58.236Z,3.00
2023-02-28T20:59:26.246Z,2.90
2023-02-28T21:01:56.252Z,2.90
2023-02-28T21:04:24.395Z,2.90
2023-02-28T21:06:52.401Z,2.90
2023-02-28T21:09:20.614Z,2.80
2023-02-28T21:11:49.427Z,2.80
2023-02-28T21:14:18.765Z,2.80
2023-02-28T21:16:46.948Z,2.80
2023-02-28T21:19:16.849Z,2.70
2023-02-28T21:21:47.966Z,2.70
2023-02-28T21:24:18.181Z,2.70
2023-02-28T21:26:47.256Z,2.70
2023-02-28T21:29:15.869Z,2.70
2023-02-28T21:31:44.053Z,2.70
2023-02-28T21:34:13.520Z,2.70
2023-02-28T21:36:45.381Z,2.60
2023-02-28T21:39:17.955Z,2.60
2023-02-28T21:41:46.575Z,2.60
2023-02-28T21:44:18.805Z,2.60
2023-02-28T21:46:48.211Z,2.50
2023-02-28T21:49:17.170Z,2.50
2023-02-28T21:51:46.471Z,2.50
2023-02-28T21:54:14.848Z,2.50
2023-02-28T21:56:42.824Z,2.50
2023-02-28T21:59:11.686Z,2.50
2023-02-28T22:01:41.271Z,2.40
2023-02-28T22:04:11.031Z,2.40
2023-02-28T22:06:41.030Z,2.40
2023-02-28T22:09:11.901Z,2.40
2023-02-28T22:11:40.647Z,2.40
2023-02-28T22:14:12.345Z,2.30
2023-02-28T22:16:51.259Z,2.30
2023-02-28T22:19:21.265Z,2.30
2023-02-28T22:21:50.215Z,2.30
2023-02-28T22:24:23.308Z,2.30
2023-02-28T22:26:51.542Z,2.20
2023-02-28T22:29:19.661Z,2.20
2023-02-28T22:31:47.773Z,2.20
2023-02-28T22:34:15.808Z,2.20
2023-02-28T22:36:44.629Z,2.10
2023-02-28T22:39:12.805Z,2.10
2023-02-28T22:41:42.139Z,2.10
2023-02-28T22:44:10.072Z,2.10
2023-02-28T22:46:38.362Z,2.10
2023-02-28T22:49:07.127Z,2.10
2023-02-28T22:51:35.871Z,2.00
2023-02-28T22:54:04.302Z,2.00
2023-02-28T22:56:32.807Z,2.00
2023-02-28T22:59:02.943Z,2.00
2023-02-28T23:01:33.005Z,2.00
2023-02-28T23:04:01.407Z,1.90
2023-02-28T23:06:32.388Z,1.90
2023-02-28T23:09:02.547Z,1.90
2023-02-28T23:11:32.237Z,1.90
2023-02-28T23:14:01.973Z,1.90
2023-02-28T23:16:33.181Z,1.80
2023-02-28T23:19:02.912Z,1.80
2023-02-28T23:21:31.408Z,1.80
2023-02-28T23:23:59.516Z,1.80
2023-02-28T23:26:27.581Z,1.80
2023-02-28T23:28:56.073Z,1.80
2023-02-28T23:31:25.388Z,1.70
2023-02-28T23:33:53.587Z,1.70
2023-02-28T23:36:21.681Z,1.70
2023-02-28T23:38:51.612Z,1.70
2023-02-28T23:41:21.105Z,1.70
2023-02-28T23:43:49.258Z,1.70
2023-02-28T23:46:17.483Z,1.70
2023-02-28T23:48:46.856Z,1.60
2023-02-28T23:51:16.827Z,1.70
2023-02-28T23:53:46.958Z,1.60
2023-02-28T23:56:18.456Z,1.60
2023-02-28T23:58:46.943Z,1.60
